viernes, 5 de junio de 2015

Comportamiento histórico de las precipitaciones en los meses de abril y mayo en Barranquilla

El déficit actual de precipitaciones en la ciudad de Barranquilla respecto al registro histórico de la estación meteorológica ubicada en el aeropuerto Ernesto Cortissoz y al promedio de la serie 1981 – 2010, es de 83,4 milímetros (L/m2). Esto debido a que hasta 31 de mayo la cantidad de lluvia caída ha sido de 69,6 mm, y de acuerdo a los promedios señalados, hasta la fecha debería haber caído una cantidad alrededor de los 153 mm.

Analizando los comportamientos históricos de las precipitaciones para los meses de abril y mayo desde el año 1990, y aplicando el índice de aridez de Gaussen, se puede observar en que años de esta serie los niveles de lluvia caída han sido característicos de zonas secas (por debajo de la línea roja) semiáridas (entre la línea roja y la verde) o húmedas (por encima de la línea verde). Es lógico que en el actual año ambos meses han sido áridos, algo que es, hasta cierto punto, normal para el mes de abril pero no para el de mayo.

Fuente: Creación del autor


Fuente: Creación del autor


El nivel de precipitaciones del mes de mayo para este año ha sido uno de los más bajos históricamente. Tan solo cayeron 27,8 mm cuando el promedio normal de este mes se encuentra alrededor de lo 118 mm. Sin embargo, se espera que para los siguientes años se vuelva a incrementar.

El índice de aridez de Gaussen establece que: 


Nelson Vásquez Castellar
nevacas2004@gmail.com









miércoles, 3 de junio de 2015

DÉFICIT ACTUAL DE PRECIPITACIONES EN BARRANQUILLA

Ha terminado el mes de mayo y el saldo respecto al nivel promedio de precipitaciones que lo caracteriza es negativo por cuarto año consecutivo. Sin embargo, niveles tan bajos como el de este año no se habían experimentado desde 1997. En esa ocasión la cantidad de precipitación caída fue de 25,6 milímetros, bastante coincidente con la de este último año cuyo registro estuvo en 27,8. El mes de abril pasado también ha resultado ser uno de los más secos de la historia debido a que no se registró caída de lluvias. Para ambos meses las precipitaciones han experimentado una caída sostenida desde los últimos 4 años respecto al promedio climatológico 1981 – 2010 y de acuerdo a los datos suministrados por la estación meteorológica del IDEAM instalada en el aeropuerto Ernesto Cortissoz.

Fuente: El autor
Fuente: El autor
En los dos últimos años, el comportamiento de la precipitación en el mes de mayo ha sido característico de un mes árido de acuerdo al índice de aridez de Gaussen, aún a pesar de ser el mes con mayor nivel pluviométrico promedio normalmente del primer semestre con cantidades alrededor de los 118 milímetros. Abril, a pesar de ser un mes árido en esta zona, es normal que mantenga promedios del orden de 31 mm. Sin embargo, este año no presentó precipitaciones; configurándose uno de los abriles más secos de los últimos 25 años.

Este comportamiento presenta cierta ciclicidad. Factores como la presencia del fenómeno ENOS, la ZCIT, la actividad en El Caribe durante la temporada de huracanes y la oscilación del atlántico norte (NAO por sus siglas en inglés), entre otros, condicionan el régimen de las variables meteorológicas en la región, especialmente de las precipitaciones, las cuales tienen una marcada estacionalidad. Por lo tanto es muy probable que el comportamiento actual sea transitorio y nuevamente retome una tendencia alrededor a los promedios normales.

Más allá de lo que se evidencia en el momento, al hacer un análisis entre los promedios climatológicos de las series de tiempo 1971 – 2000 y 1981 – 2010, se puede observar un aumento en la precipitación anual promedio, especialmente desde junio a diciembre. Tal ha sido el aumento que el régimen pluviométrico con característica bimodal que presenta la ciudad está pasando a ser monomodal, principalmente debido al incremento de los promedios en los meses de junio, julio y agosto.

Fuente: El autor

Realizando un análisis de anomalías y tendencias de las precipitaciones en los meses de abril y mayo, utilizando una correlación polinómica para seis períodos, se prevé que, matemáticamente, para los próximos años debe darse un aumento en las cantidades de lluvia caída para ambos períodos.

Fuente: El autor

Fuente: El autor

Incorporando el índice de aridez de Gaussen al análisis de los datos se puede establecer que de acuerdo al comportamiento de la precipitación y la temperatura promedio, el mes de mayo se configuró como un mes árido más allá de que en condiciones normales no lo es. 

Observando los gráficos del índice señalado se puede evidenciar que los meses que entran según los promedios de la serie de tiempo 1981 – 2010 en la categoría de aridez (niveles por debajo de la línea roja) son diciembre, enero, febrero, marzo y abril. Junio, julio y noviembre se pueden considerar semiáridos, mientras que los catalogados como húmedos (niveles por encima de la línea verde) son mayo, agosto, septiembre y octubre.  

Fuente: El autor


El índice de aridez de Gaussen determina que:

En lo que va corrido de 2015, hasta mayo 31, la cantidad de precipitación caída ha sido de 69,6 milímetros. A esta fecha el nivel normal debe estar alrededor de 153 milímetros. Además de ello el mes en que más ha precipitado durante el año ha sido febrero (41 mm), algo inusual por cuanto este es un mes en donde normalmente se presenta escasa presencia de lluvias. Este comportamiento no debe ser motivo de alarma pues obedece a características propias de la variabilidad climática. 


Nelson Vásquez Castellar




sábado, 30 de mayo de 2015

Después de mucha espera volvió a llover en Barranquilla.


Momentos antes de la llegada de la lluvia al aeropuerto
Ernesto Cortissoz. Meteo Para Todos
Una sucesión de cielos despejados y diáfanos había caracterizado este inusual mes de mayo que en condiciones normales recibe cantidades de precipitaciones alrededor de los 116 milímetros. El evento de ayer generó 26,9 mm de acuerdo a la estación meteorológica del aeropuerto Ernesto Cortissoz que presta sus servicios a esta ciudad.

Las condiciones meteorológicas que antecedieron a este evento ya presagiaban su ocurrencia. Presencia de nubes de desarrollo vertical que indicaban actividad convectiva y por ende inestabilidad atmosférica, caída significativa de la presión desde las 17:00 a las 20:00 UTC y descenso continuado de la temperatura, fueron las evidencias que indicaban la probable ocurrencia de los fenómenos que ayer se presentaron. Luego cuando en el horizonte se comenzaron a observar las primeras cortinas de lluvia era inminente que esta llegaría hasta territorio Barranquillero.

Llegada de la precipitación al Aeropuerto Ernesto Cortissoz de Barranquilla.
Esta se prolongó por espacio de dos horas. Meteo Para Todos. 

El aeropuerto Ernesto Cortissoz estuvo restringido por algún momento. Los reportes meteorológicos referentes a las condiciones descritas en este terminal aéreo se muestran a continuación:

METAR SKBQ 291900Z 08003KT 9999 SCT015 SCT100 35/24 A2980=

METAR SKBQ 292000Z 06010KT 9999 VCSH SCT015CB SCT100 30/25 A2979 RMKCB/VCSH/W/NW=

SPECI SKBQ 292005Z 06011KT 8000 4000SW TS SCT010CB BKN100 29/25 A2981 RMK CB VCSH SW/W/NW=

SPECI SKBQ 292019Z 34014KT 4000 2000SW -TSRA SCT010CB BKN100 28/25 A2983 RMK CB/SW/W AD OPR IMC=

SPECI SKBQ 292033Z 30016KT 1500 TSRA BKN008 FEW010CB BKN100 26/24 A2983 RMK/CB/SW AD OPR IMC=

METAR SKBQ 292100Z 30005KT 4000 200SW TSRA SCT010CB BKN100 24/24 A2982 CB/SW/ AD OPR IMC=

SPECI SKBQ 292123Z 07003KT 8000 -DZ SCT012 BKN100 25/25 A2982 RETSRA=

METAR SKBQ 292200Z 00000KT 9999 SCT012 BKN100 26/26 A2983 RETSRA=


Redacción Meteo Para Todos

jueves, 28 de mayo de 2015

Apuntes acerca del actual evento cálido del Pacífico ecuatorial (El Niño)

De acuerdo a las mediciones en campo y a los análisis de diferentes fuentes las condiciones actuales en el pacífico señalan que se han incrementado las condiciones El Niño debido a que las temperaturas del Pacífico tropical continúan siendo más cálidas de lo normal, y los vientos alisios siguen siendo más débiles que la media.
En esta imagen se observa el comportamiento de la temperatura superficial del pacífico ecuatorial en la diferentes regiones Niño. Se revela su marcado incremento respecto a los promedios normales.




De acuerdo al CIIFEN todos los modelos consultados sugieren prolongación del calentamiento del océano. Grandes áreas de aguas cálidas a nivel subsuperficial, en el Pacífico ecuatorial, permanecerán durante algún tiempo.
Esto incrementará que factores atmosféricos entren en juego, aportando calentamiento adicional al Pacífico tropical. Por su parte todos los modelos climáticos consultados, señalan que los umbrales de El Niño se superarán en junio.

Esta imagen nos muestra una diferencia entre las anomalías de temperaturas superficiales del Pacífico entre el 18 de abril y el 28 de marzo de 2015. Se aprecia un ligero descenso en el nivel de anomalías.


El índice de oscilación del sur presenta actualmente un decremento respecto a los niveles de febrero, mes en el cual experimentó un gran incremento que presagiaba un Niño de mayor magnitud. Desde la primera semana de marzo el SOI descendió tan abruptamente como había subido en febrero. El último valor promediado a 30 días de este índice fue de -3,9 tomado a 21 de abril de 2015.

Comportamiento del índice de oscilación del sur. Se aprecia un decremento desde principios de marzo del presente año respecto a febrero. El evento El Niño actual se considera de leve a moderado pero no se descartan escenarios de mayor impacto.

La anomalía del contenido de calor en al capa superficial confirma la presencia del evento cálido actual.

Las condiciones actuales del evento son de moderadas a débiles, sin embargo, dadas las tendencias en algunas variables no se descartan escenarios de mayor magnitud e impacto sobre todo en los niveles de precipitaciones en el Pacífico oriental.


El bajo nivel de precipitaciones en el sector norte del Caribe colombiano puede estar asociado a este comportamiento. De hecho las previsiones desde principios de año han estado señalando déficit en esta variable sobre el área en cuestión. 

Redacción Meteo Para Todos
Fuente: CIIFEN